sensor_id;sensor_type;location;lat;lon;timestamp;temperature;humidity
25512;DHT22;13414;44.534;18.700;2024-03-08T00:00:26;7.30;99.90
25512;DHT22;13414;44.534;18.700;2024-03-08T00:02:54;7.30;99.90
25512;DHT22;13414;44.534;18.700;2024-03-08T00:05:23;7.30;99.90
25512;DHT22;13414;44.534;18.700;2024-03-08T00:07:50;7.20;99.90
25512;DHT22;13414;44.534;18.700;2024-03-08T00:10:19;7.00;99.90
25512;DHT22;13414;44.534;18.700;2024-03-08T00:12:46;6.90;99.90
25512;DHT22;13414;44.534;18.700;2024-03-08T00:15:15;6.90;99.90
25512;DHT22;13414;44.534;18.700;2024-03-08T00:17:45;6.80;99.90
25512;DHT22;13414;44.534;18.700;2024-03-08T00:20:13;6.90;99.90
25512;DHT22;13414;44.534;18.700;2024-03-08T00:22:41;6.80;99.90
25512;DHT22;13414;44.534;18.700;2024-03-08T00:25:09;6.80;99.90
25512;DHT22;13414;44.534;18.700;2024-03-08T00:27:38;6.80;99.90
25512;DHT22;13414;44.534;18.700;2024-03-08T00:30:06;6.90;99.90
25512;DHT22;13414;44.534;18.700;2024-03-08T00:32:34;7.00;99.90
25512;DHT22;13414;44.534;18.700;2024-03-08T00:35:03;7.00;99.90
25512;DHT22;13414;44.534;18.700;2024-03-08T00:37:33;6.90;99.90
25512;DHT22;13414;44.534;18.700;2024-03-08T00:40:02;7.00;99.90
25512;DHT22;13414;44.534;18.700;2024-03-08T00:42:30;7.00;99.90
25512;DHT22;13414;44.534;18.700;2024-03-08T00:44:59;7.10;99.90
25512;DHT22;13414;44.534;18.700;2024-03-08T00:47:26;7.10;99.90
25512;DHT22;13414;44.534;18.700;2024-03-08T00:49:54;7.00;99.90
25512;DHT22;13414;44.534;18.700;2024-03-08T00:52:22;7.00;99.90
25512;DHT22;13414;44.534;18.700;2024-03-08T00:54:51;6.90;99.90
25512;DHT22;13414;44.534;18.700;2024-03-08T00:57:20;6.90;99.90
25512;DHT22;13414;44.534;18.700;2024-03-08T00:59:48;6.90;99.90
25512;DHT22;13414;44.534;18.700;2024-03-08T01:02:15;7.00;99.90
25512;DHT22;13414;44.534;18.700;2024-03-08T01:04:44;6.90;99.90
25512;DHT22;13414;44.534;18.700;2024-03-08T01:07:13;6.90;99.90
25512;DHT22;13414;44.534;18.700;2024-03-08T01:09:41;6.70;99.90
25512;DHT22;13414;44.534;18.700;2024-03-08T01:12:09;6.60;99.90
25512;DHT22;13414;44.534;18.700;2024-03-08T01:14:40;6.60;99.90
25512;DHT22;13414;44.534;18.700;2024-03-08T01:17:09;6.60;99.90
25512;DHT22;13414;44.534;18.700;2024-03-08T01:19:40;6.60;99.90
25512;DHT22;13414;44.534;18.700;2024-03-08T01:22:10;6.60;99.90
25512;DHT22;13414;44.534;18.700;2024-03-08T01:24:37;6.70;99.90
25512;DHT22;13414;44.534;18.700;2024-03-08T01:27:05;6.70;99.90
25512;DHT22;13414;44.534;18.700;2024-03-08T01:29:35;6.70;99.90
25512;DHT22;13414;44.534;18.700;2024-03-08T01:32:04;6.70;99.90
25512;DHT22;13414;44.534;18.700;2024-03-08T01:34:32;6.80;99.90
25512;DHT22;13414;44.534;18.700;2024-03-08T01:36:59;6.80;99.90
25512;DHT22;13414;44.534;18.700;2024-03-08T01:39:26;6.80;99.90
25512;DHT22;13414;44.534;18.700;2024-03-08T01:41:54;6.80;99.90
25512;DHT22;13414;44.534;18.700;2024-03-08T01:44:21;6.80;99.90
25512;DHT22;13414;44.534;18.700;2024-03-08T01:46:50;7.00;99.90
25512;DHT22;13414;44.534;18.700;2024-03-08T01:49:20;7.00;99.90
25512;DHT22;13414;44.534;18.700;2024-03-08T01:51:49;7.10;99.90
25512;DHT22;13414;44.534;18.700;2024-03-08T01:54:19;6.90;99.90
25512;DHT22;13414;44.534;18.700;2024-03-08T01:56:47;6.90;99.90
25512;DHT22;13414;44.534;18.700;2024-03-08T01:59:16;6.90;99.90
25512;DHT22;13414;44.534;18.700;2024-03-08T02:01:43;7.00;99.90
25512;DHT22;13414;44.534;18.700;2024-03-08T02:04:11;7.00;99.90
25512;DHT22;13414;44.534;18.700;2024-03-08T02:06:39;7.00;99.90
25512;DHT22;13414;44.534;18.700;2024-03-08T02:09:07;6.90;99.90
25512;DHT22;13414;44.534;18.700;2024-03-08T02:11:34;6.90;99.90
25512;DHT22;13414;44.534;18.700;2024-03-08T02:14:02;6.90;99.90
25512;DHT22;13414;44.534;18.700;2024-03-08T02:16:32;7.10;99.90
25512;DHT22;13414;44.534;18.700;2024-03-08T02:18:59;7.10;99.90
25512;DHT22;13414;44.534;18.700;2024-03-08T02:21:28;7.20;99.90
25512;DHT22;13414;44.534;18.700;2024-03-08T02:23:57;7.10;99.90
25512;DHT22;13414;44.534;18.700;2024-03-08T02:26:24;7.00;99.90
25512;DHT22;13414;44.534;18.700;2024-03-08T02:28:51;7.00;99.90
25512;DHT22;13414;44.534;18.700;2024-03-08T02:31:20;6.90;99.90
25512;DHT22;13414;44.534;18.700;2024-03-08T02:33:47;6.90;99.90
25512;DHT22;13414;44.534;18.700;2024-03-08T02:36:15;6.90;99.90
25512;DHT22;13414;44.534;18.700;2024-03-08T02:38:44;6.80;99.90
25512;DHT22;13414;44.534;18.700;2024-03-08T02:41:12;6.80;99.90
25512;DHT22;13414;44.534;18.700;2024-03-08T02:43:39;6.80;99.90
25512;DHT22;13414;44.534;18.700;2024-03-08T02:46:07;6.80;99.90
25512;DHT22;13414;44.534;18.700;2024-03-08T02:48:34;6.80;99.90
25512;DHT22;13414;44.534;18.700;2024-03-08T02:51:02;6.80;99.90
25512;DHT22;13414;44.534;18.700;2024-03-08T02:53:30;6.80;99.90
25512;DHT22;13414;44.534;18.700;2024-03-08T02:55:59;6.80;99.90
25512;DHT22;13414;44.534;18.700;2024-03-08T02:58:26;6.90;99.90
25512;DHT22;13414;44.534;18.700;2024-03-08T03:00:54;6.80;99.90
25512;DHT22;13414;44.534;18.700;2024-03-08T03:03:23;6.80;99.90
25512;DHT22;13414;44.534;18.700;2024-03-08T03:05:50;6.70;99.90
25512;DHT22;13414;44.534;18.700;2024-03-08T03:08:21;6.70;99.90
25512;DHT22;13414;44.534;18.700;2024-03-08T03:10:49;6.60;99.90
25512;DHT22;13414;44.534;18.700;2024-03-08T03:13:18;6.50;99.90
25512;DHT22;13414;44.534;18.700;2024-03-08T03:15:46;6.50;99.90
25512;DHT22;13414;44.534;18.700;2024-03-08T03:18:14;6.60;99.90
25512;DHT22;13414;44.534;18.700;2024-03-08T03:20:41;6.60;99.90
25512;DHT22;13414;44.534;18.700;2024-03-08T03:23:10;6.70;99.90
25512;DHT22;13414;44.534;18.700;2024-03-08T03:25:40;6.70;99.90
25512;DHT22;13414;44.534;18.700;2024-03-08T03:28:07;6.80;99.90
25512;DHT22;13414;44.534;18.700;2024-03-08T03:30:38;6.70;99.90
25512;DHT22;13414;44.534;18.700;2024-03-08T03:33:05;6.60;99.90
25512;DHT22;13414;44.534;18.700;2024-03-08T03:35:33;6.70;99.90
25512;DHT22;13414;44.534;18.700;2024-03-08T03:38:02;6.70;99.90
25512;DHT22;13414;44.534;18.700;2024-03-08T03:40:32;6.60;99.90
25512;DHT22;13414;44.534;18.700;2024-03-08T03:43:00;6.70;99.90
25512;DHT22;13414;44.534;18.700;2024-03-08T03:45:28;6.60;99.90
25512;DHT22;13414;44.534;18.700;2024-03-08T03:48:01;6.70;99.90
25512;DHT22;13414;44.534;18.700;2024-03-08T03:50:29;6.80;99.90
25512;DHT22;13414;44.534;18.700;2024-03-08T03:52:57;6.80;99.90
25512;DHT22;13414;44.534;18.700;2024-03-08T03:55:24;6.80;99.90
25512;DHT22;13414;44.534;18.700;2024-03-08T03:57:52;6.80;99.90
25512;DHT22;13414;44.534;18.700;2024-03-08T04:00:21;6.80;99.90
25512;DHT22;13414;44.534;18.700;2024-03-08T04:02:51;6.80;99.90
25512;DHT22;13414;44.534;18.700;2024-03-08T04:05:20;6.80;99.90
25512;DHT22;13414;44.534;18.700;2024-03-08T04:07:48;6.90;99.90
25512;DHT22;13414;44.534;18.700;2024-03-08T04:10:15;6.90;99.90
25512;DHT22;13414;44.534;18.700;2024-03-08T04:12:43;6.90;99.90
25512;DHT22;13414;44.534;18.700;2024-03-08T04:15:10;6.80;99.90
25512;DHT22;13414;44.534;18.700;2024-03-08T04:17:38;6.80;99.90
25512;DHT22;13414;44.534;18.700;2024-03-08T04:20:06;6.70;99.90
25512;DHT22;13414;44.534;18.700;2024-03-08T04:22:37;6.70;99.90
25512;DHT22;13414;44.534;18.700;2024-03-08T04:25:05;6.80;99.90
25512;DHT22;13414;44.534;18.700;2024-03-08T04:27:33;6.90;99.90
25512;DHT22;13414;44.534;18.700;2024-03-08T04:30:01;6.90;99.90
25512;DHT22;13414;44.534;18.700;2024-03-08T04:32:29;7.00;99.90
25512;DHT22;13414;44.534;18.700;2024-03-08T04:34:58;6.80;99.90
25512;DHT22;13414;44.534;18.700;2024-03-08T04:37:27;6.70;99.90
25512;DHT22;13414;44.534;18.700;2024-03-08T04:39:57;6.70;99.90
25512;DHT22;13414;44.534;18.700;2024-03-08T04:42:24;6.60;99.90
25512;DHT22;13414;44.534;18.700;2024-03-08T04:44:52;6.50;99.90
25512;DHT22;13414;44.534;18.700;2024-03-08T04:47:20;6.50;99.90
25512;DHT22;13414;44.534;18.700;2024-03-08T04:49:48;6.60;99.90
25512;DHT22;13414;44.534;18.700;2024-03-08T04:52:16;6.60;99.90
25512;DHT22;13414;44.534;18.700;2024-03-08T04:54:44;6.70;99.90
25512;DHT22;13414;44.534;18.700;2024-03-08T04:57:13;6.70;99.90
25512;DHT22;13414;44.534;18.700;2024-03-08T04:59:40;6.80;99.90
25512;DHT22;13414;44.534;18.700;2024-03-08T05:02:08;6.80;99.90
25512;DHT22;13414;44.534;18.700;2024-03-08T05:04:35;6.90;99.90
25512;DHT22;13414;44.534;18.700;2024-03-08T05:07:02;6.90;99.90
25512;DHT22;13414;44.534;18.700;2024-03-08T05:09:30;7.00;99.90
25512;DHT22;13414;44.534;18.700;2024-03-08T05:11:59;7.10;99.90
25512;DHT22;13414;44.534;18.700;2024-03-08T05:14:29;7.00;99.90
25512;DHT22;13414;44.534;18.700;2024-03-08T05:16:56;6.90;99.90
25512;DHT22;13414;44.534;18.700;2024-03-08T05:19:24;6.80;99.90
25512;DHT22;13414;44.534;18.700;2024-03-08T05:21:51;6.90;99.90
25512;DHT22;13414;44.534;18.700;2024-03-08T05:24:19;6.80;99.90
25512;DHT22;13414;44.534;18.700;2024-03-08T05:26:46;6.90;99.90
25512;DHT22;13414;44.534;18.700;2024-03-08T05:29:14;6.90;99.90
25512;DHT22;13414;44.534;18.700;2024-03-08T05:31:47;6.90;99.90
25512;DHT22;13414;44.534;18.700;2024-03-08T05:34:15;6.90;99.90
25512;DHT22;13414;44.534;18.700;2024-03-08T05:36:42;6.90;99.90
25512;DHT22;13414;44.534;18.700;2024-03-08T05:39:10;6.90;99.90
25512;DHT22;13414;44.534;18.700;2024-03-08T05:41:38;6.80;99.90
25512;DHT22;13414;44.534;18.700;2024-03-08T05:44:06;6.90;99.90
25512;DHT22;13414;44.534;18.700;2024-03-08T05:46:33;6.80;99.90
25512;DHT22;13414;44.534;18.700;2024-03-08T05:49:03;6.80;99.90
25512;DHT22;13414;44.534;18.700;2024-03-08T05:51:31;6.90;99.90
25512;DHT22;13414;44.534;18.700;2024-03-08T05:54:00;7.00;99.90
25512;DHT22;13414;44.534;18.700;2024-03-08T05:56:29;7.10;99.90
25512;DHT22;13414;44.534;18.700;2024-03-08T05:58:56;7.10;99.90
25512;DHT22;13414;44.534;18.700;2024-03-08T06:01:24;7.20;99.90
25512;DHT22;13414;44.534;18.700;2024-03-08T06:03:52;7.20;99.90
25512;DHT22;13414;44.534;18.700;2024-03-08T06:06:23;7.30;99.90
25512;DHT22;13414;44.534;18.700;2024-03-08T06:08:51;7.30;99.90
25512;DHT22;13414;44.534;18.700;2024-03-08T06:11:19;7.20;99.90
25512;DHT22;13414;44.534;18.700;2024-03-08T06:13:47;7.20;99.90
25512;DHT22;13414;44.534;18.700;2024-03-08T06:16:16;7.30;99.90
25512;DHT22;13414;44.534;18.700;2024-03-08T06:18:44;7.30;99.90
25512;DHT22;13414;44.534;18.700;2024-03-08T06:21:12;7.30;99.90
25512;DHT22;13414;44.534;18.700;2024-03-08T06:23:41;7.20;99.90
25512;DHT22;13414;44.534;18.700;2024-03-08T06:26:09;7.20;99.90
25512;DHT22;13414;44.534;18.700;2024-03-08T06:28:36;7.10;99.90
25512;DHT22;13414;44.534;18.700;2024-03-08T06:31:04;7.20;99.90
25512;DHT22;13414;44.534;18.700;2024-03-08T06:33:32;7.30;99.90
25512;DHT22;13414;44.534;18.700;2024-03-08T06:36:01;7.40;99.90
25512;DHT22;13414;44.534;18.700;2024-03-08T06:38:28;7.50;99.90
25512;DHT22;13414;44.534;18.700;2024-03-08T06:40:57;7.50;99.90
25512;DHT22;13414;44.534;18.700;2024-03-08T06:43:27;7.50;99.90
25512;DHT22;13414;44.534;18.700;2024-03-08T06:46:00;7.50;99.90
25512;DHT22;13414;44.534;18.700;2024-03-08T06:48:29;7.60;99.90
25512;DHT22;13414;44.534;18.700;2024-03-08T06:50:56;7.60;99.90
25512;DHT22;13414;44.534;18.700;2024-03-08T06:53:24;7.60;99.90
25512;DHT22;13414;44.534;18.700;2024-03-08T06:55:52;7.70;99.90
25512;DHT22;13414;44.534;18.700;2024-03-08T06:58:22;7.80;99.90
25512;DHT22;13414;44.534;18.700;2024-03-08T07:00:49;7.80;99.90
25512;DHT22;13414;44.534;18.700;2024-03-08T07:03:18;7.80;99.90
25512;DHT22;13414;44.534;18.700;2024-03-08T07:05:46;7.70;99.90
25512;DHT22;13414;44.534;18.700;2024-03-08T07:08:13;7.80;99.30
25512;DHT22;13414;44.534;18.700;2024-03-08T07:10:42;7.90;1.00
25512;DHT22;13414;44.534;18.700;2024-03-08T07:13:11;7.90;1.00
25512;DHT22;13414;44.534;18.700;2024-03-08T07:15:40;8.00;1.00
25512;DHT22;13414;44.534;18.700;2024-03-08T07:18:08;8.00;1.00
25512;DHT22;13414;44.534;18.700;2024-03-08T07:20:40;8.00;99.90
25512;DHT22;13414;44.534;18.700;2024-03-08T07:23:08;8.10;1.00
25512;DHT22;13414;44.534;18.700;2024-03-08T07:25:36;8.10;99.90
25512;DHT22;13414;44.534;18.700;2024-03-08T07:28:05;8.20;99.90
25512;DHT22;13414;44.534;18.700;2024-03-08T07:30:33;8.30;1.00
25512;DHT22;13414;44.534;18.700;2024-03-08T07:33:22;8.30;99.90
25512;DHT22;13414;44.534;18.700;2024-03-08T07:35:49;8.40;1.00
25512;DHT22;13414;44.534;18.700;2024-03-08T07:38:17;8.30;99.90
25512;DHT22;13414;44.534;18.700;2024-03-08T07:40:47;8.40;1.00
25512;DHT22;13414;44.534;18.700;2024-03-08T07:43:14;8.30;99.90
25512;DHT22;13414;44.534;18.700;2024-03-08T07:45:42;8.40;19.80
25512;DHT22;13414;44.534;18.700;2024-03-08T07:48:09;8.40;31.80
25512;DHT22;13414;44.534;18.700;2024-03-08T07:50:39;8.50;1.00
25512;DHT22;13414;44.534;18.700;2024-03-08T07:53:07;8.60;1.00
25512;DHT22;13414;44.534;18.700;2024-03-08T07:55:35;8.60;1.00
25512;DHT22;13414;44.534;18.700;2024-03-08T07:58:02;8.70;1.00
25512;DHT22;13414;44.534;18.700;2024-03-08T08:00:30;8.70;1.00
25512;DHT22;13414;44.534;18.700;2024-03-08T08:02:58;8.60;99.90
25512;DHT22;13414;44.534;18.700;2024-03-08T08:05:25;8.50;99.90
25512;DHT22;13414;44.534;18.700;2024-03-08T08:07:54;8.60;99.90
25512;DHT22;13414;44.534;18.700;2024-03-08T08:10:22;8.70;99.90
25512;DHT22;13414;44.534;18.700;2024-03-08T08:12:50;8.70;99.90
25512;DHT22;13414;44.534;18.700;2024-03-08T08:15:18;8.90;99.90
25512;DHT22;13414;44.534;18.700;2024-03-08T08:17:46;9.10;1.00
25512;DHT22;13414;44.534;18.700;2024-03-08T08:20:13;9.10;99.90
25512;DHT22;13414;44.534;18.700;2024-03-08T08:22:42;9.30;1.00
25512;DHT22;13414;44.534;18.700;2024-03-08T08:25:11;9.40;1.00
25512;DHT22;13414;44.534;18.700;2024-03-08T08:27:39;9.30;1.00
25512;DHT22;13414;44.534;18.700;2024-03-08T08:30:09;9.40;99.90
25512;DHT22;13414;44.534;18.700;2024-03-08T08:32:37;9.50;1.00
25512;DHT22;13414;44.534;18.700;2024-03-08T08:35:05;9.60;1.00
25512;DHT22;13414;44.534;18.700;2024-03-08T08:37:35;9.70;1.00
25512;DHT22;13414;44.534;18.700;2024-03-08T08:40:06;9.70;99.90
25512;DHT22;13414;44.534;18.700;2024-03-08T08:42:37;9.70;99.90
25512;DHT22;13414;44.534;18.700;2024-03-08T08:45:05;9.50;99.90
25512;DHT22;13414;44.534;18.700;2024-03-08T08:47:34;9.70;1.00
25512;DHT22;13414;44.534;18.700;2024-03-08T08:50:02;9.90;1.00
25512;DHT22;13414;44.534;18.700;2024-03-08T08:52:30;10.00;1.00
25512;DHT22;13414;44.534;18.700;2024-03-08T08:54:58;10.20;99.90
25512;DHT22;13414;44.534;18.700;2024-03-08T08:57:26;10.30;99.90
25512;DHT22;13414;44.534;18.700;2024-03-08T08:59:55;10.40;99.90
25512;DHT22;13414;44.534;18.700;2024-03-08T09:02:23;10.50;1.00
25512;DHT22;13414;44.534;18.700;2024-03-08T09:04:51;10.60;1.00
25512;DHT22;13414;44.534;18.700;2024-03-08T09:07:19;10.70;1.00
25512;DHT22;13414;44.534;18.700;2024-03-08T09:09:46;10.60;1.00
25512;DHT22;13414;44.534;18.700;2024-03-08T09:12:14;10.70;1.00
25512;DHT22;13414;44.534;18.700;2024-03-08T09:14:41;10.80;1.00
25512;DHT22;13414;44.534;18.700;2024-03-08T09:17:10;10.80;99.90
25512;DHT22;13414;44.534;18.700;2024-03-08T09:19:38;10.70;99.90
25512;DHT22;13414;44.534;18.700;2024-03-08T09:22:06;10.50;99.90
25512;DHT22;13414;44.534;18.700;2024-03-08T09:24:33;10.70;1.00
25512;DHT22;13414;44.534;18.700;2024-03-08T09:27:01;10.80;99.90
25512;DHT22;13414;44.534;18.700;2024-03-08T09:29:29;10.60;1.00
25512;DHT22;13414;44.534;18.700;2024-03-08T09:31:56;10.60;99.90
25512;DHT22;13414;44.534;18.700;2024-03-08T09:34:25;10.70;99.90
25512;DHT22;13414;44.534;18.700;2024-03-08T09:36:52;10.80;99.90
25512;DHT22;13414;44.534;18.700;2024-03-08T09:39:20;10.70;99.90
25512;DHT22;13414;44.534;18.700;2024-03-08T09:41:48;10.90;99.90
25512;DHT22;13414;44.534;18.700;2024-03-08T09:44:15;10.90;99.90
25512;DHT22;13414;44.534;18.700;2024-03-08T09:46:45;10.90;46.80
25512;DHT22;13414;44.534;18.700;2024-03-08T09:49:14;11.10;99.90
25512;DHT22;13414;44.534;18.700;2024-03-08T09:51:42;11.10;69.00
25512;DHT22;13414;44.534;18.700;2024-03-08T09:54:10;11.20;48.70
25512;DHT22;13414;44.534;18.700;2024-03-08T09:56:39;11.20;48.60
25512;DHT22;13414;44.534;18.700;2024-03-08T09:59:07;11.30;99.90
25512;DHT22;13414;44.534;18.700;2024-03-08T10:02:14;11.40;29.20
25512;DHT22;13414;44.534;18.700;2024-03-08T10:04:42;11.50;1.00
25512;DHT22;13414;44.534;18.700;2024-03-08T10:07:10;11.40;1.00
25512;DHT22;13414;44.534;18.700;2024-03-08T10:09:38;11.50;52.00
25512;DHT22;13414;44.534;18.700;2024-03-08T10:12:08;11.60;1.00
25512;DHT22;13414;44.534;18.700;2024-03-08T10:14:40;11.70;3.60
25512;DHT22;13414;44.534;18.700;2024-03-08T10:17:08;12.10;1.00
25512;DHT22;13414;44.534;18.700;2024-03-08T10:19:35;12.30;1.00
25512;DHT22;13414;44.534;18.700;2024-03-08T10:22:03;12.20;1.00
25512;DHT22;13414;44.534;18.700;2024-03-08T10:24:34;12.00;1.00
25512;DHT22;13414;44.534;18.700;2024-03-08T10:27:01;12.20;1.00
25512;DHT22;13414;44.534;18.700;2024-03-08T10:29:31;12.00;1.00
25512;DHT22;13414;44.534;18.700;2024-03-08T10:31:59;12.10;1.00
25512;DHT22;13414;44.534;18.700;2024-03-08T10:34:26;12.20;1.00
25512;DHT22;13414;44.534;18.700;2024-03-08T10:37:00;12.20;1.00
25512;DHT22;13414;44.534;18.700;2024-03-08T10:39:36;12.30;1.00
25512;DHT22;13414;44.534;18.700;2024-03-08T10:42:04;12.20;1.00
25512;DHT22;13414;44.534;18.700;2024-03-08T10:44:49;12.30;1.00
25512;DHT22;13414;44.534;18.700;2024-03-08T10:47:26;12.50;1.00
25512;DHT22;13414;44.534;18.700;2024-03-08T10:50:07;12.30;1.00
25512;DHT22;13414;44.534;18.700;2024-03-08T10:52:39;12.00;1.00
25512;DHT22;13414;44.534;18.700;2024-03-08T10:55:10;11.90;1.00
25512;DHT22;13414;44.534;18.700;2024-03-08T10:57:39;12.00;1.00
25512;DHT22;13414;44.534;18.700;2024-03-08T11:00:08;12.20;1.00
25512;DHT22;13414;44.534;18.700;2024-03-08T11:02:37;12.20;1.00
25512;DHT22;13414;44.534;18.700;2024-03-08T11:05:10;12.50;1.00
25512;DHT22;13414;44.534;18.700;2024-03-08T11:07:41;12.70;1.00
25512;DHT22;13414;44.534;18.700;2024-03-08T11:10:19;12.50;1.00
25512;DHT22;13414;44.534;18.700;2024-03-08T11:12:47;12.20;1.00
25512;DHT22;13414;44.534;18.700;2024-03-08T11:15:15;12.10;1.00
25512;DHT22;13414;44.534;18.700;2024-03-08T11:17:48;12.30;1.00
25512;DHT22;13414;44.534;18.700;2024-03-08T11:20:17;12.30;1.00
25512;DHT22;13414;44.534;18.700;2024-03-08T11:22:51;12.30;1.00
25512;DHT22;13414;44.534;18.700;2024-03-08T11:25:38;12.60;1.00
25512;DHT22;13414;44.534;18.700;2024-03-08T11:28:12;12.90;1.00
25512;DHT22;13414;44.534;18.700;2024-03-08T11:31:21;13.20;1.00
25512;DHT22;13414;44.534;18.700;2024-03-08T11:33:36;13.40;1.00
25512;DHT22;13414;44.534;18.700;2024-03-08T11:36:09;13.60;1.00
25512;DHT22;13414;44.534;18.700;2024-03-08T11:38:40;13.60;1.00
25512;DHT22;13414;44.534;18.700;2024-03-08T11:41:11;13.60;1.00
25512;DHT22;13414;44.534;18.700;2024-03-08T11:43:40;13.40;1.00
25512;DHT22;13414;44.534;18.700;2024-03-08T11:46:08;13.20;1.00
25512;DHT22;13414;44.534;18.700;2024-03-08T11:48:36;13.20;1.00
25512;DHT22;13414;44.534;18.700;2024-03-08T11:51:04;12.70;1.00
25512;DHT22;13414;44.534;18.700;2024-03-08T11:53:32;12.90;1.00
25512;DHT22;13414;44.534;18.700;2024-03-08T11:56:07;12.90;1.00
25512;DHT22;13414;44.534;18.700;2024-03-08T11:58:36;13.10;1.00
25512;DHT22;13414;44.534;18.700;2024-03-08T12:01:04;13.10;1.00
25512;DHT22;13414;44.534;18.700;2024-03-08T12:03:33;13.10;1.00
25512;DHT22;13414;44.534;18.700;2024-03-08T12:06:01;13.10;1.00
25512;DHT22;13414;44.534;18.700;2024-03-08T12:08:30;13.00;1.00
25512;DHT22;13414;44.534;18.700;2024-03-08T12:10:58;13.10;1.00
25512;DHT22;13414;44.534;18.700;2024-03-08T12:13:27;13.30;1.00
25512;DHT22;13414;44.534;18.700;2024-03-08T12:15:58;13.40;1.00
25512;DHT22;13414;44.534;18.700;2024-03-08T12:18:26;13.50;1.00
25512;DHT22;13414;44.534;18.700;2024-03-08T12:21:04;13.30;1.00
25512;DHT22;13414;44.534;18.700;2024-03-08T12:23:33;13.60;1.00
25512;DHT22;13414;44.534;18.700;2024-03-08T12:26:10;13.40;1.00
25512;DHT22;13414;44.534;18.700;2024-03-08T12:28:39;13.20;1.00
25512;DHT22;13414;44.534;18.700;2024-03-08T12:31:08;13.10;1.00
25512;DHT22;13414;44.534;18.700;2024-03-08T12:33:37;12.80;1.00
25512;DHT22;13414;44.534;18.700;2024-03-08T12:36:05;12.60;1.00
25512;DHT22;13414;44.534;18.700;2024-03-08T12:38:33;12.70;1.00
25512;DHT22;13414;44.534;18.700;2024-03-08T12:41:03;12.90;1.00
25512;DHT22;13414;44.534;18.700;2024-03-08T12:43:31;13.00;1.00
25512;DHT22;13414;44.534;18.700;2024-03-08T12:45:59;13.10;1.00
25512;DHT22;13414;44.534;18.700;2024-03-08T12:48:35;13.10;1.00
25512;DHT22;13414;44.534;18.700;2024-03-08T12:51:06;13.10;1.00
25512;DHT22;13414;44.534;18.700;2024-03-08T12:53:34;13.30;1.00
25512;DHT22;13414;44.534;18.700;2024-03-08T12:56:03;13.40;1.00
25512;DHT22;13414;44.534;18.700;2024-03-08T12:58:34;13.30;1.00
25512;DHT22;13414;44.534;18.700;2024-03-08T13:01:02;13.40;1.00
25512;DHT22;13414;44.534;18.700;2024-03-08T13:03:30;13.40;1.00
25512;DHT22;13414;44.534;18.700;2024-03-08T13:06:00;13.30;1.00
25512;DHT22;13414;44.534;18.700;2024-03-08T13:08:27;13.50;1.00
25512;DHT22;13414;44.534;18.700;2024-03-08T13:10:55;13.40;1.00
25512;DHT22;13414;44.534;18.700;2024-03-08T13:13:23;13.30;1.00
25512;DHT22;13414;44.534;18.700;2024-03-08T13:15:50;13.20;1.00
25512;DHT22;13414;44.534;18.700;2024-03-08T13:18:19;13.20;1.00
25512;DHT22;13414;44.534;18.700;2024-03-08T13:20:47;13.10;1.00
25512;DHT22;13414;44.534;18.700;2024-03-08T13:23:19;12.90;1.00
25512;DHT22;13414;44.534;18.700;2024-03-08T13:25:46;13.00;1.00
25512;DHT22;13414;44.534;18.700;2024-03-08T13:28:14;12.80;1.00
25512;DHT22;13414;44.534;18.700;2024-03-08T13:30:43;12.80;1.00
25512;DHT22;13414;44.534;18.700;2024-03-08T13:33:11;12.90;1.00
25512;DHT22;13414;44.534;18.700;2024-03-08T13:35:39;13.10;1.00
25512;DHT22;13414;44.534;18.700;2024-03-08T13:38:07;13.20;1.00
25512;DHT22;13414;44.534;18.700;2024-03-08T13:40:39;13.20;1.00
25512;DHT22;13414;44.534;18.700;2024-03-08T13:43:07;13.10;1.00
25512;DHT22;13414;44.534;18.700;2024-03-08T13:45:35;13.10;1.00
25512;DHT22;13414;44.534;18.700;2024-03-08T13:48:04;13.00;1.00
25512;DHT22;13414;44.534;18.700;2024-03-08T13:50:32;13.30;1.00
25512;DHT22;13414;44.534;18.700;2024-03-08T13:53:01;13.40;1.00
25512;DHT22;13414;44.534;18.700;2024-03-08T13:55:29;13.00;1.00
25512;DHT22;13414;44.534;18.700;2024-03-08T13:57:58;12.90;1.00
25512;DHT22;13414;44.534;18.700;2024-03-08T14:00:26;12.80;1.00
25512;DHT22;13414;44.534;18.700;2024-03-08T14:02:59;12.50;1.00
25512;DHT22;13414;44.534;18.700;2024-03-08T14:05:26;12.50;1.00
25512;DHT22;13414;44.534;18.700;2024-03-08T14:07:53;12.20;1.00
25512;DHT22;13414;44.534;18.700;2024-03-08T14:10:21;12.10;1.00
25512;DHT22;13414;44.534;18.700;2024-03-08T14:12:49;12.20;1.00
25512;DHT22;13414;44.534;18.700;2024-03-08T14:15:18;12.30;1.00
25512;DHT22;13414;44.534;18.700;2024-03-08T14:17:52;12.40;1.00
25512;DHT22;13414;44.534;18.700;2024-03-08T14:20:20;12.40;1.00
25512;DHT22;13414;44.534;18.700;2024-03-08T14:22:51;12.50;1.00
25512;DHT22;13414;44.534;18.700;2024-03-08T14:25:19;12.40;1.00
25512;DHT22;13414;44.534;18.700;2024-03-08T14:27:50;12.40;1.00
25512;DHT22;13414;44.534;18.700;2024-03-08T14:30:21;12.40;1.00
25512;DHT22;13414;44.534;18.700;2024-03-08T14:33:01;12.50;1.00
25512;DHT22;13414;44.534;18.700;2024-03-08T14:35:28;12.70;1.00
25512;DHT22;13414;44.534;18.700;2024-03-08T14:37:56;12.60;1.00
25512;DHT22;13414;44.534;18.700;2024-03-08T14:40:24;12.40;1.00
25512;DHT22;13414;44.534;18.700;2024-03-08T14:42:52;12.30;1.00
25512;DHT22;13414;44.534;18.700;2024-03-08T14:45:21;12.20;1.00
25512;DHT22;13414;44.534;18.700;2024-03-08T14:47:50;12.20;1.00
25512;DHT22;13414;44.534;18.700;2024-03-08T14:50:17;12.30;1.00
25512;DHT22;13414;44.534;18.700;2024-03-08T14:52:45;12.30;1.00
25512;DHT22;13414;44.534;18.700;2024-03-08T14:55:14;12.20;1.00
25512;DHT22;13414;44.534;18.700;2024-03-08T14:57:41;12.10;1.00
25512;DHT22;13414;44.534;18.700;2024-03-08T15:00:12;11.90;1.00
25512;DHT22;13414;44.534;18.700;2024-03-08T15:02:45;11.90;1.00
25512;DHT22;13414;44.534;18.700;2024-03-08T15:05:14;11.80;1.00
25512;DHT22;13414;44.534;18.700;2024-03-08T15:07:47;11.80;1.00
25512;DHT22;13414;44.534;18.700;2024-03-08T15:10:15;11.70;1.00
25512;DHT22;13414;44.534;18.700;2024-03-08T15:12:46;11.70;1.00
25512;DHT22;13414;44.534;18.700;2024-03-08T15:15:14;11.60;1.00
25512;DHT22;13414;44.534;18.700;2024-03-08T15:17:45;11.50;1.00
25512;DHT22;13414;44.534;18.700;2024-03-08T15:20:13;11.60;1.00
25512;DHT22;13414;44.534;18.700;2024-03-08T15:22:43;11.30;14.60
25512;DHT22;13414;44.534;18.700;2024-03-08T15:25:11;11.40;53.10
25512;DHT22;13414;44.534;18.700;2024-03-08T15:27:43;11.30;49.10
25512;DHT22;13414;44.534;18.700;2024-03-08T15:30:11;11.20;78.60
25512;DHT22;13414;44.534;18.700;2024-03-08T15:32:45;11.00;99.90
25512;DHT22;13414;44.534;18.700;2024-03-08T15:35:14;10.90;99.90
25512;DHT22;13414;44.534;18.700;2024-03-08T15:37:42;10.80;99.90
25512;DHT22;13414;44.534;18.700;2024-03-08T15:40:11;10.80;99.90